Time;durP1;ratioP1;P1;durP2;ratioP2;P2;SDS_P1;SDS_P2;PMS_P1;PMS_P2;Temp;Humidity;BMP_temperature;BMP_pressure;BME280_temperature;BME280_humidity;BME280_pressure;Samples;Min_cycle;Max_cycle;Signal;HPM_P1;HPM_P2
2023/05/17 00:01:04;;;;;;;5.50;1.17;;;10.20;99.90;;;;;;5086706;28;20048;-73
2023/05/17 00:03:30;;;;;;;11.35;2.67;;;10.20;99.90;;;;;;5103863;28;20055;-73
2023/05/17 00:05:55;;;;;;;4.13;1.50;;;10.20;99.90;;;;;;5105469;28;20393;-73
2023/05/17 00:08:21;;;;;;;7.68;1.92;;;10.20;99.90;;;;;;5104251;28;20063;-73
2023/05/17 00:10:46;;;;;;;11.00;2.25;;;10.20;99.90;;;;;;5087160;28;20532;-73
2023/05/17 00:13:12;;;;;;;3.85;1.15;;;10.20;99.90;;;;;;5137336;27;20075;-73
2023/05/17 00:15:38;;;;;;;9.82;2.33;;;10.20;99.90;;;;;;5104904;28;20047;-73
2023/05/17 00:18:03;;;;;;;6.00;1.67;;;10.20;99.90;;;;;;5105321;28;20435;-73
2023/05/17 00:20:29;;;;;;;4.28;1.73;;;10.20;99.90;;;;;;5104743;28;20036;-73
2023/05/17 00:22:55;;;;;;;4.95;2.22;;;10.10;99.90;;;;;;5104727;28;20039;-73
2023/05/17 00:25:20;;;;;;;14.20;1.45;;;10.10;99.90;;;;;;5105041;28;20124;-73
2023/05/17 00:27:46;;;;;;;4.00;2.17;;;10.10;99.90;;;;;;5137650;27;20028;-73
2023/05/17 00:30:12;;;;;;;2.72;0.88;;;10.10;99.90;;;;;;5105288;28;20463;-73
2023/05/17 00:32:37;;;;;;;3.13;1.30;;;10.10;99.90;;;;;;5102803;28;20050;-73
2023/05/17 00:35:03;;;;;;;6.10;1.88;;;10.10;99.90;;;;;;5104775;28;20035;-73
2023/05/17 00:37:29;;;;;;;5.20;2.13;;;10.10;99.90;;;;;;5103533;28;20360;-73
2023/05/17 00:39:54;;;;;;;7.00;1.65;;;10.10;99.90;;;;;;5103911;28;20039;-73
2023/05/17 00:42:20;;;;;;;2.20;1.85;;;10.00;99.90;;;;;;5103732;28;20119;-73
2023/05/17 00:44:45;;;;;;;3.47;0.93;;;10.00;99.90;;;;;;5104437;28;20087;-73
2023/05/17 00:47:11;;;;;;;4.63;1.25;;;10.00;99.90;;;;;;5102861;28;20055;-73
2023/05/17 00:49:37;;;;;;;4.90;1.60;;;10.00;99.90;;;;;;5104619;28;20043;-73
2023/05/17 00:52:03;;;;;;;5.05;0.73;;;10.00;99.90;;;;;;5104289;28;20569;-73
2023/05/17 00:54:30;;;;;;;8.85;1.42;;;10.00;99.90;;;;;;5084928;28;20035;-73
2023/05/17 00:56:56;;;;;;;3.55;1.23;;;9.90;99.90;;;;;;5102838;28;20066;-73
2023/05/17 00:59:23;;;;;;;3.90;1.50;;;9.90;99.90;;;;;;5104580;28;20043;-73
2023/05/17 01:01:50;;;;;;;4.72;1.17;;;9.90;99.90;;;;;;5104407;28;20047;-73
2023/05/17 01:04:15;;;;;;;10.88;1.73;;;9.90;99.90;;;;;;5102966;28;20062;-73
2023/05/17 01:06:41;;;;;;;2.95;1.10;;;9.90;99.90;;;;;;5085553;28;20055;-73
2023/05/17 01:09:07;;;;;;;1.63;1.45;;;9.90;99.90;;;;;;5102370;28;20119;-73
2023/05/17 01:12:08;;;;;;;4.50;1.00;;;9.90;99.90;;;;;;5103734;28;20047;-73
2023/05/17 01:14:50;;;;;;;2.67;1.83;;;9.90;99.90;;;;;;5112164;22;20123;-73
2023/05/17 01:17:46;;;;;;;3.38;1.67;;;9.90;99.90;;;;;;5022677;28;20104;-73
2023/05/17 01:20:27;;;;;;;3.05;1.83;;;9.90;99.90;;;;;;5021880;28;20057;-73
2023/05/17 01:23:14;;;;;;;4.53;2.05;;;9.90;99.90;;;;;;5023176;28;20107;-73
2023/05/17 01:25:52;;;;;;;2.22;1.33;;;10.00;99.90;;;;;;5022912;28;20076;-73
2023/05/17 01:28:20;;;;;;;3.40;1.00;;;10.00;99.90;;;;;;5021905;28;20037;-73
2023/05/17 01:30:48;;;;;;;4.88;1.63;;;10.00;99.90;;;;;;5021899;28;20049;-73
2023/05/17 01:33:15;;;;;;;5.18;1.38;;;10.00;99.90;;;;;;5023239;28;20113;-73
2023/05/17 01:35:40;;;;;;;5.15;1.50;;;10.00;99.90;;;;;;5023381;28;20049;-73
2023/05/17 01:38:06;;;;;;;12.23;2.25;;;10.00;99.90;;;;;;5020535;28;20099;-73
2023/05/17 01:40:36;;;;;;;4.03;1.08;;;10.00;99.90;;;;;;5022134;28;20581;-73
2023/05/17 01:43:23;;;;;;;2.75;0.80;;;10.00;99.90;;;;;;5023338;28;20041;-73
2023/05/17 01:46:04;;;;;;;3.72;1.38;;;10.00;99.90;;;;;;5021859;28;20124;-73
2023/05/17 01:48:59;;;;;;;3.88;1.13;;;9.90;99.90;;;;;;5021607;28;20072;-73
2023/05/17 01:51:32;;;;;;;3.53;1.33;;;9.90;99.90;;;;;;5022328;28;20073;-73
2023/05/17 01:54:02;;;;;;;2.58;0.75;;;9.90;99.90;;;;;;5020816;28;20108;-73
2023/05/17 01:56:33;;;;;;;2.00;0.90;;;10.00;99.90;;;;;;5023086;28;20095;-73
2023/05/17 01:59:01;;;;;;;3.53;0.93;;;9.90;99.90;;;;;;5023116;28;20038;-73
2023/05/17 02:01:29;;;;;;;2.67;1.55;;;9.90;99.90;;;;;;5021523;28;20049;-73
2023/05/17 02:03:55;;;;;;;4.15;0.57;;;9.90;99.90;;;;;;5021878;28;20057;-73
2023/05/17 02:06:20;;;;;;;3.78;2.08;;;9.90;99.90;;;;;;5023213;28;20421;-73
2023/05/17 02:08:46;;;;;;;2.65;0.98;;;9.80;99.90;;;;;;5021885;28;20602;-73
2023/05/17 02:11:11;;;;;;;10.15;1.48;;;9.80;99.90;;;;;;5011670;28;20069;-73
2023/05/17 02:13:37;;;;;;;3.15;0.73;;;9.80;99.90;;;;;;5003231;28;20042;-73
2023/05/17 02:16:03;;;;;;;2.63;0.75;;;9.70;99.90;;;;;;5002867;28;20193;-73
2023/05/17 02:18:31;;;;;;;2.15;0.80;;;9.70;99.90;;;;;;5001430;28;20128;-73
2023/05/17 02:20:57;;;;;;;1.00;0.80;;;9.70;99.90;;;;;;5002244;28;20097;-73
2023/05/17 02:23:23;;;;;;;1.52;0.70;;;9.70;99.90;;;;;;5010876;28;20068;-73
2023/05/17 02:25:49;;;;;;;2.50;0.82;;;9.70;99.90;;;;;;5026426;28;20483;-73
2023/05/17 02:28:15;;;;;;;5.70;0.90;;;9.60;99.90;;;;;;5026582;28;20053;-73
2023/05/17 02:30:41;;;;;;;3.03;1.23;;;9.60;99.90;;;;;;5026721;28;20395;-73
2023/05/17 02:33:07;;;;;;;2.10;0.52;;;9.60;99.90;;;;;;5026419;28;20037;-73
2023/05/17 02:35:32;;;;;;;2.03;0.95;;;9.60;99.90;;;;;;5026224;28;20539;-73
2023/05/17 02:37:58;;;;;;;1.15;0.77;;;9.60;99.90;;;;;;5026175;28;20048;-73
2023/05/17 02:40:24;;;;;;;5.80;1.63;;;9.60;99.90;;;;;;5026525;28;20059;-73
2023/05/17 02:42:50;;;;;;;6.80;1.05;;;9.60;99.90;;;;;;5026401;28;20037;-73
2023/05/17 02:45:16;;;;;;;2.33;0.95;;;9.50;99.90;;;;;;5026699;28;20042;-73
2023/05/17 02:47:41;;;;;;;3.10;1.38;;;9.60;99.90;;;;;;5024407;28;20042;-74
2023/05/17 02:50:07;;;;;;;1.77;0.47;;;9.60;99.90;;;;;;5026687;28;20500;-73
2023/05/17 02:52:33;;;;;;;2.53;1.45;;;9.60;99.90;;;;;;5023983;28;20397;-73
2023/05/17 02:54:58;;;;;;;1.75;0.45;;;9.60;99.90;;;;;;5026241;28;20049;-74
2023/05/17 02:57:24;;;;;;;3.70;1.45;;;9.60;99.90;;;;;;5026469;28;20037;-73
2023/05/17 02:59:50;;;;;;;4.20;1.85;;;9.50;99.90;;;;;;5026143;28;20573;-73
2023/05/17 03:02:15;;;;;;;8.85;1.45;;;9.50;99.90;;;;;;5026470;28;20103;-73
2023/05/17 03:04:41;;;;;;;4.35;1.17;;;9.50;99.90;;;;;;5025473;28;20435;-73
2023/05/17 03:07:07;;;;;;;0.80;0.80;;;9.50;99.90;;;;;;5025819;28;20099;-74
2023/05/17 03:09:33;;;;;;;1.83;1.67;;;9.40;99.90;;;;;;5025906;28;20057;-73
2023/05/17 03:11:58;;;;;;;4.55;1.67;;;9.40;99.90;;;;;;5025444;28;20121;-73
2023/05/17 03:14:24;;;;;;;3.60;1.27;;;9.40;99.90;;;;;;5024725;28;20080;-73
2023/05/17 03:16:49;;;;;;;3.60;0.88;;;9.40;99.90;;;;;;5026057;28;20104;-73
2023/05/17 03:19:15;;;;;;;3.92;1.25;;;9.40;99.90;;;;;;5024279;28;20055;-73
2023/05/17 03:21:41;;;;;;;2.72;1.67;;;9.40;99.90;;;;;;5025667;28;20045;-73
2023/05/17 03:24:06;;;;;;;3.20;1.45;;;9.40;99.90;;;;;;5024793;28;20053;-73
2023/05/17 03:26:32;;;;;;;2.55;1.10;;;9.40;99.90;;;;;;5025412;28;20057;-73
2023/05/17 03:28:58;;;;;;;5.47;1.33;;;9.50;99.90;;;;;;5026018;28;20394;-73
2023/05/17 03:31:24;;;;;;;2.53;1.05;;;9.40;99.90;;;;;;5008102;28;20044;-73
2023/05/17 03:33:50;;;;;;;3.80;0.70;;;9.40;99.90;;;;;;5024567;28;20491;-73
2023/05/17 03:36:15;;;;;;;3.63;0.77;;;9.40;99.90;;;;;;5025801;28;20041;-73
2023/05/17 03:38:41;;;;;;;1.10;0.95;;;9.40;99.90;;;;;;5024047;28;20579;-74
2023/05/17 03:41:06;;;;;;;1.48;0.93;;;9.40;99.90;;;;;;5025709;28;20049;-74
2023/05/17 03:43:32;;;;;;;2.05;0.85;;;9.40;99.90;;;;;;5025087;28;20120;-73
2023/05/17 03:45:58;;;;;;;1.90;0.80;;;9.40;99.90;;;;;;5007538;28;20102;-74
2023/05/17 03:48:23;;;;;;;2.70;0.60;;;9.40;99.90;;;;;;5025922;28;20040;-72
2023/05/17 03:50:49;;;;;;;1.55;0.85;;;9.40;99.90;;;;;;5025064;28;20034;-73
2023/05/17 03:53:14;;;;;;;2.13;0.77;;;9.40;99.90;;;;;;5024653;28;20049;-73
2023/05/17 03:55:40;;;;;;;4.70;1.08;;;9.40;99.90;;;;;;5023735;28;20081;-73
2023/05/17 03:58:06;;;;;;;5.32;0.93;;;9.30;99.90;;;;;;5024913;28;20360;-74
2023/05/17 04:00:32;;;;;;;1.80;0.55;;;9.30;99.90;;;;;;5023852;28;20056;-73
2023/05/17 04:02:57;;;;;;;4.28;1.23;;;9.30;99.90;;;;;;5024604;28;20041;-73
2023/05/17 04:05:23;;;;;;;1.95;1.42;;;9.30;99.90;;;;;;5025386;28;20048;-73
2023/05/17 04:07:48;;;;;;;2.15;0.57;;;9.30;99.90;;;;;;5023159;28;20048;-73
2023/05/17 04:10:15;;;;;;;4.03;0.80;;;9.30;99.90;;;;;;5024515;28;20041;-73
2023/05/17 04:12:40;;;;;;;1.60;1.50;;;9.30;99.90;;;;;;5024527;28;20477;-74
2023/05/17 04:15:06;;;;;;;1.40;0.90;;;9.30;99.90;;;;;;5024513;28;20140;-73
2023/05/17 04:17:32;;;;;;;3.15;0.90;;;9.30;99.90;;;;;;5023275;28;20081;-73
2023/05/17 04:19:57;;;;;;;5.15;0.93;;;9.30;99.90;;;;;;5024522;28;20399;-73
2023/05/17 04:22:23;;;;;;;1.13;0.88;;;9.20;99.90;;;;;;5024226;28;20758;-73
2023/05/17 04:24:48;;;;;;;1.63;0.77;;;9.20;99.90;;;;;;5024413;28;20034;-73
2023/05/17 04:27:14;;;;;;;0.93;0.90;;;9.20;99.90;;;;;;5024280;28;20049;-73
2023/05/17 04:29:40;;;;;;;0.65;0.65;;;9.20;99.90;;;;;;5022940;28;20041;-73
2023/05/17 04:32:07;;;;;;;2.13;1.05;;;9.20;99.90;;;;;;5023420;28;20034;-73
2023/05/17 04:34:32;;;;;;;3.58;1.20;;;9.20;99.90;;;;;;5023675;28;20053;-73
2023/05/17 04:36:58;;;;;;;2.05;1.77;;;9.30;99.90;;;;;;5023756;28;20387;-73
2023/05/17 04:39:24;;;;;;;3.35;0.63;;;9.30;99.90;;;;;;5023421;28;20096;-73
2023/05/17 04:41:49;;;;;;;2.10;0.65;;;9.30;99.90;;;;;;5024124;28;20400;-73
2023/05/17 04:44:16;;;;;;;2.03;0.68;;;9.30;99.90;;;;;;5023417;28;20049;-73
2023/05/17 04:46:42;;;;;;;1.60;0.73;;;9.30;99.90;;;;;;5024046;28;20049;-73
2023/05/17 04:49:08;;;;;;;5.53;1.73;;;9.40;99.90;;;;;;5023431;28;20091;-73
2023/05/17 04:51:34;;;;;;;1.85;0.85;;;9.30;99.90;;;;;;5006274;28;20049;-73
2023/05/17 04:54:00;;;;;;;1.80;0.60;;;9.40;99.90;;;;;;5005495;28;20733;-74
2023/05/17 04:56:27;;;;;;;3.03;0.73;;;9.40;99.90;;;;;;5023883;28;20049;-74
2023/05/17 04:58:52;;;;;;;1.40;0.55;;;9.40;99.90;;;;;;5023956;28;20491;-74
2023/05/17 05:01:18;;;;;;;1.10;0.73;;;9.40;99.90;;;;;;5024452;28;20048;-74
2023/05/17 05:03:44;;;;;;;1.02;0.82;;;9.50;99.90;;;;;;5024007;28;20096;-74
2023/05/17 05:06:10;;;;;;;10.45;1.45;;;9.50;99.90;;;;;;5022136;28;20040;-73
2023/05/17 05:08:36;;;;;;;1.50;1.40;;;9.50;99.90;;;;;;5021183;28;20124;-73
2023/05/17 05:11:02;;;;;;;0.98;0.47;;;9.50;99.90;;;;;;5023839;28;20402;-73
2023/05/17 05:13:27;;;;;;;2.55;1.02;;;9.60;99.90;;;;;;5023368;28;20033;-74
2023/05/17 05:15:53;;;;;;;0.93;0.85;;;9.60;99.90;;;;;;5023905;28;20169;-73
2023/05/17 05:18:19;;;;;;;0.82;0.60;;;9.70;99.90;;;;;;5023380;28;20072;-74
2023/05/17 05:20:47;;;;;;;2.50;1.30;;;9.70;99.90;;;;;;5023256;28;20049;-74
2023/05/17 05:23:12;;;;;;;1.33;0.55;;;9.70;99.90;;;;;;5020742;28;20124;-74
2023/05/17 05:25:38;;;;;;;1.75;0.60;;;9.70;99.90;;;;;;5023537;28;20112;-76
2023/05/17 05:28:04;;;;;;;1.65;0.73;;;9.80;99.90;;;;;;5021809;28;20052;-76
2023/05/17 05:30:31;;;;;;;1.08;0.40;;;9.80;99.90;;;;;;5019978;28;20033;-76
2023/05/17 05:32:56;;;;;;;3.00;1.08;;;9.70;99.90;;;;;;5012867;28;20511;-76
2023/05/17 05:35:27;;;;;;;2.28;0.90;;;9.70;99.90;;;;;;5022915;28;20128;-77
2023/05/17 05:37:53;;;;;;;2.35;0.40;;;9.70;99.90;;;;;;5021884;28;20037;-75
2023/05/17 05:40:19;;;;;;;2.38;1.85;;;9.70;99.90;;;;;;5021460;28;20037;-75
2023/05/17 05:42:45;;;;;;;1.65;1.10;;;9.70;99.90;;;;;;5023628;28;20092;-75
2023/05/17 05:45:10;;;;;;;1.83;0.98;;;9.70;99.90;;;;;;5023411;28;20051;-75
2023/05/17 05:47:36;;;;;;;6.10;1.90;;;9.70;99.90;;;;;;5022478;28;20069;-75
2023/05/17 05:50:02;;;;;;;4.95;0.98;;;9.70;99.90;;;;;;5022961;28;20403;-75
2023/05/17 05:52:28;;;;;;;5.78;1.63;;;9.70;99.90;;;;;;5021868;28;20107;-75
2023/05/17 05:54:53;;;;;;;3.97;0.95;;;9.70;99.90;;;;;;5023270;28;20050;-77
2023/05/17 05:57:19;;;;;;;2.15;0.95;;;9.80;99.90;;;;;;5019669;28;20125;-76
2023/05/17 05:59:45;;;;;;;2.50;1.67;;;9.80;99.90;;;;;;5022005;28;20068;-76
2023/05/17 06:02:10;;;;;;;8.57;1.55;;;9.80;99.90;;;;;;5021751;28;20084;-76
2023/05/17 06:04:37;;;;;;;6.60;1.00;;;9.80;99.90;;;;;;5020432;28;20078;-76
2023/05/17 06:07:03;;;;;;;3.25;0.73;;;9.90;99.90;;;;;;5020294;28;20049;-76
2023/05/17 06:09:28;;;;;;;1.13;0.82;;;9.90;99.90;;;;;;5020464;28;20125;-78
2023/05/17 06:11:54;;;;;;;1.90;0.70;;;10.00;99.90;;;;;;5021989;28;20046;-76
2023/05/17 06:14:19;;;;;;;5.55;1.00;;;10.00;99.90;;;;;;5021660;28;20400;-77
2023/05/17 06:16:47;;;;;;;3.65;0.93;;;10.10;99.90;;;;;;5019276;28;20057;-76
2023/05/17 06:19:13;;;;;;;4.13;1.27;;;10.10;99.90;;;;;;5014440;28;20112;-76
2023/05/17 06:21:38;;;;;;;5.50;1.75;;;10.10;99.90;;;;;;5020848;28;20073;-76
2023/05/17 06:24:04;;;;;;;3.40;0.95;;;10.10;99.90;;;;;;5022539;28;20587;-75
2023/05/17 06:26:30;;;;;;;2.17;0.93;;;10.10;99.90;;;;;;5021701;28;20476;-75
2023/05/17 06:28:56;;;;;;;3.10;1.40;;;10.10;99.90;;;;;;5021223;28;20081;-75
2023/05/17 06:31:21;;;;;;;7.10;1.65;;;10.10;99.90;;;;;;5015356;28;20056;-74
2023/05/17 06:33:47;;;;;;;2.72;1.85;;;10.10;99.90;;;;;;5021521;28;20060;-75
2023/05/17 06:36:12;;;;;;;4.50;0.90;;;10.10;99.90;;;;;;5021340;28;20050;-74
2023/05/17 06:38:38;;;;;;;4.53;2.08;;;10.10;99.90;;;;;;5019339;28;20164;-75
2023/05/17 06:41:04;;;;;;;4.53;1.05;;;10.10;99.90;;;;;;5017481;28;20067;-75
2023/05/17 06:43:29;;;;;;;1.63;0.85;;;10.10;99.90;;;;;;5005482;28;20034;-75
2023/05/17 06:45:55;;;;;;;2.30;0.90;;;10.10;99.90;;;;;;5021170;28;20404;-75
2023/05/17 06:48:20;;;;;;;1.98;0.70;;;10.20;99.90;;;;;;5021763;28;20037;-75
2023/05/17 06:50:46;;;;;;;2.13;0.63;;;10.30;99.90;;;;;;5019840;28;20060;-75
2023/05/17 06:53:12;;;;;;;2.50;0.95;;;10.30;99.90;;;;;;5020731;28;20045;-75
2023/05/17 06:55:37;;;;;;;2.70;1.27;;;10.40;99.90;;;;;;5020258;28;20049;-75
2023/05/17 06:58:03;;;;;;;3.72;1.10;;;10.50;99.90;;;;;;5020208;28;20316;-75
2023/05/17 07:00:28;;;;;;;7.45;1.17;;;10.50;99.90;;;;;;5019931;28;20128;-75
2023/05/17 07:02:54;;;;;;;4.68;0.90;;;10.50;99.90;;;;;;5007370;28;20364;-75
2023/05/17 07:05:21;;;;;;;3.67;1.08;;;10.50;99.90;;;;;;5007900;28;20060;-75
2023/05/17 07:07:46;;;;;;;2.50;0.73;;;10.50;99.90;;;;;;5021996;28;20034;-74
2023/05/17 07:10:12;;;;;;;0.82;0.60;;;10.50;99.90;;;;;;5015632;28;20616;-75
2023/05/17 07:12:37;;;;;;;1.23;0.60;;;10.50;99.90;;;;;;5023771;28;20053;-75
2023/05/17 07:15:03;;;;;;;3.55;0.98;;;10.50;99.90;;;;;;5022506;28;20042;-75
2023/05/17 07:17:30;;;;;;;4.97;1.02;;;10.40;99.90;;;;;;5023715;28;20037;-75
2023/05/17 07:19:55;;;;;;;1.70;1.05;;;10.50;99.90;;;;;;5022669;28;20041;-75
2023/05/17 07:22:21;;;;;;;4.88;0.70;;;10.50;99.90;;;;;;5022984;28;20043;-75
2023/05/17 07:24:47;;;;;;;0.65;0.63;;;10.50;99.90;;;;;;5022921;28;20037;-75
2023/05/17 07:27:12;;;;;;;3.55;0.68;;;10.50;99.90;;;;;;5024136;28;20483;-75
2023/05/17 07:29:38;;;;;;;4.13;1.17;;;10.60;99.90;;;;;;5023311;28;20565;-75
2023/05/17 07:32:04;;;;;;;5.28;1.27;;;10.70;99.90;;;;;;5024263;28;20107;-75
2023/05/17 07:34:30;;;;;;;3.17;1.13;;;10.70;99.90;;;;;;5018591;28;20080;-76
2023/05/17 07:36:55;;;;;;;11.43;1.13;;;10.80;99.90;;;;;;5009615;28;20045;-76
2023/05/17 07:39:21;;;;;;;1.33;1.23;;;10.80;99.90;;;;;;5025465;28;20041;-76
2023/05/17 07:41:47;;;;;;;3.67;1.65;;;10.80;99.90;;;;;;5023484;28;20274;-76
2023/05/17 07:44:12;;;;;;;1.60;0.70;;;10.80;99.90;;;;;;5024436;28;20061;-76
2023/05/17 07:46:38;;;;;;;6.78;1.17;;;10.80;99.90;;;;;;5023797;28;20029;-76
2023/05/17 07:49:03;;;;;;;5.10;1.15;;;10.80;99.90;;;;;;5023493;28;20475;-76
2023/05/17 07:51:30;;;;;;;2.38;0.50;;;10.90;99.90;;;;;;5023251;28;20048;-76
2023/05/17 07:53:56;;;;;;;6.30;1.13;;;10.90;99.90;;;;;;5005759;28;20053;-76
2023/05/17 07:56:21;;;;;;;5.85;1.42;;;10.90;99.90;;;;;;5023583;28;20146;-76
2023/05/17 07:58:47;;;;;;;2.80;1.17;;;10.90;99.90;;;;;;5022375;28;20046;-76
2023/05/17 08:01:13;;;;;;;2.25;0.68;;;10.90;99.90;;;;;;5022485;28;20507;-76
2023/05/17 08:03:46;;;;;;;6.15;0.73;;;10.90;99.90;;;;;;5022730;28;20128;-76
2023/05/17 08:06:12;;;;;;;5.47;1.15;;;10.90;99.90;;;;;;5022660;28;20096;-76
2023/05/17 08:08:38;;;;;;;4.60;1.08;;;10.80;99.90;;;;;;5023001;28;20037;-76
2023/05/17 08:11:03;;;;;;;2.78;1.48;;;10.80;99.90;;;;;;5022111;28;20052;-76
2023/05/17 08:13:29;;;;;;;6.70;1.33;;;10.90;99.90;;;;;;5023610;28;20065;-76
2023/05/17 08:15:56;;;;;;;3.45;1.48;;;10.90;99.90;;;;;;5004884;28;20158;-76
2023/05/17 08:18:22;;;;;;;4.20;1.23;;;10.90;99.90;;;;;;5008664;28;20054;-76
2023/05/17 08:20:49;;;;;;;5.07;0.95;;;10.90;99.90;;;;;;5004577;28;20081;-76
2023/05/17 08:23:14;;;;;;;2.75;1.20;;;10.90;99.90;;;;;;5022840;28;20358;-75
2023/05/17 08:25:40;;;;;;;4.00;0.80;;;10.90;99.90;;;;;;5023030;28;20520;-76
2023/05/17 08:28:06;;;;;;;5.07;1.67;;;10.90;99.90;;;;;;5022022;28;20124;-76
2023/05/17 08:30:32;;;;;;;4.75;1.00;;;11.00;99.90;;;;;;5023249;28;20140;-76
2023/05/17 08:32:57;;;;;;;2.25;1.17;;;11.00;99.90;;;;;;5023348;28;20033;-76
2023/05/17 08:35:24;;;;;;;1.58;0.98;;;11.10;99.90;;;;;;5004010;28;20092;-76
2023/05/17 08:37:50;;;;;;;3.08;1.20;;;11.10;99.90;;;;;;5008885;28;20037;-76
2023/05/17 08:40:18;;;;;;;3.83;1.10;;;11.10;99.90;;;;;;5022899;28;20122;-76
2023/05/17 08:42:45;;;;;;;1.75;0.65;;;11.10;99.90;;;;;;5022471;28;20034;-76
2023/05/17 08:45:11;;;;;;;1.35;1.20;;;11.10;99.90;;;;;;5022619;28;20048;-76
2023/05/17 08:47:41;;;;;;;3.75;1.20;;;11.20;99.90;;;;;;5022739;28;20065;-76
2023/05/17 08:50:07;;;;;;;0.60;0.60;;;11.20;99.90;;;;;;5021140;28;20431;-76
2023/05/17 08:52:36;;;;;;;3.05;0.90;;;11.20;99.90;;;;;;5005078;28;20049;-75
2023/05/17 08:55:04;;;;;;;6.10;2.13;;;11.20;99.90;;;;;;5023128;28;20045;-76
2023/05/17 08:57:31;;;;;;;1.98;0.93;;;11.20;99.90;;;;;;5021524;28;20037;-75
2023/05/17 08:59:59;;;;;;;0.85;0.40;;;11.20;99.90;;;;;;5017240;28;20235;-75
2023/05/17 09:02:28;;;;;;;2.75;0.60;;;11.30;99.90;;;;;;5020067;28;20445;-75
2023/05/17 09:04:54;;;;;;;3.42;1.23;;;11.30;99.90;;;;;;5020054;28;20245;-77
2023/05/17 09:07:23;;;;;;;5.00;0.80;;;11.50;99.90;;;;;;5006911;28;20042;-76
2023/05/17 09:09:53;;;;;;;0.85;0.47;;;11.60;99.90;;;;;;5020266;28;20041;-77
2023/05/17 09:12:21;;;;;;;1.73;0.95;;;11.70;99.90;;;;;;5012175;28;20049;-77
2023/05/17 09:14:47;;;;;;;1.75;0.50;;;11.70;99.90;;;;;;5012222;28;20554;-77
2023/05/17 09:17:16;;;;;;;2.28;0.70;;;11.70;99.90;;;;;;5017857;28;20610;-76
2023/05/17 09:19:44;;;;;;;1.63;0.65;;;11.60;99.90;;;;;;5021322;28;20095;-77
2023/05/17 09:22:12;;;;;;;4.63;0.77;;;11.60;99.90;;;;;;5019206;28;20353;-77
2023/05/17 09:24:39;;;;;;;5.03;0.95;;;11.60;99.90;;;;;;5016517;28;20045;-77
2023/05/17 09:27:05;;;;;;;3.33;0.93;;;11.60;99.90;;;;;;5019432;28;20050;-76
2023/05/17 09:29:31;;;;;;;2.92;1.05;;;11.60;99.90;;;;;;5007586;28;20048;-77
2023/05/17 09:32:11;;;;;;;2.58;0.70;;;11.60;99.90;;;;;;5004381;28;20120;-77
2023/05/17 09:34:39;;;;;;;3.63;0.90;;;11.60;99.90;;;;;;5020260;28;20523;-76
2023/05/17 09:37:11;;;;;;;3.33;0.40;;;11.70;99.90;;;;;;5010491;28;20565;-77
2023/05/17 09:39:36;;;;;;;2.55;0.90;;;11.70;99.90;;;;;;5020704;28;20054;-76
2023/05/17 09:42:03;;;;;;;4.13;1.10;;;11.70;99.90;;;;;;5013459;28;20255;-77
2023/05/17 09:44:29;;;;;;;3.20;0.65;;;11.80;99.90;;;;;;5001740;28;20500;-75
2023/05/17 09:46:56;;;;;;;4.70;1.08;;;11.80;99.90;;;;;;5020178;28;20084;-75
2023/05/17 09:49:26;;;;;;;1.92;0.50;;;11.90;99.90;;;;;;5015079;28;20050;-75
2023/05/17 09:51:52;;;;;;;3.95;0.70;;;11.90;99.90;;;;;;5010274;28;20118;-75
2023/05/17 09:54:18;;;;;;;2.50;1.00;;;11.90;99.90;;;;;;5026890;28;20120;-74
2023/05/17 09:56:43;;;;;;;3.50;0.70;;;11.80;99.90;;;;;;5024052;28;20064;-76
2023/05/17 09:59:14;;;;;;;8.68;2.40;;;11.80;99.90;;;;;;5020683;28;20037;-75
2023/05/17 10:01:41;;;;;;;4.55;1.05;;;11.80;99.90;;;;;;5021133;28;20068;-75
2023/05/17 10:04:10;;;;;;;2.78;0.98;;;11.90;99.90;;;;;;5021062;28;20088;-76
2023/05/17 10:06:41;;;;;;;2.50;1.20;;;12.00;99.90;;;;;;5017895;28;20055;-76
2023/05/17 10:09:11;;;;;;;3.35;0.52;;;12.10;99.90;;;;;;5022521;28;20080;-77
2023/05/17 10:11:39;;;;;;;6.55;0.75;;;12.20;99.90;;;;;;5007318;28;20180;-77
2023/05/17 10:14:12;;;;;;;3.17;1.02;;;12.20;99.90;;;;;;5003865;28;20087;-75
2023/05/17 10:16:38;;;;;;;2.83;0.75;;;12.20;99.90;;;;;;5021042;28;20092;-77
2023/05/17 10:19:04;;;;;;;3.08;1.00;;;12.20;99.90;;;;;;5020784;28;20492;-74
2023/05/17 10:21:31;;;;;;;0.90;0.85;;;12.20;99.90;;;;;;5002868;28;20088;-75
2023/05/17 10:24:01;;;;;;;1.63;0.85;;;12.20;99.90;;;;;;5020554;28;20612;-76
2023/05/17 10:26:28;;;;;;;0.88;0.45;;;12.20;99.90;;;;;;5021034;28;20643;-75
2023/05/17 10:29:01;;;;;;;6.13;1.23;;;12.20;99.90;;;;;;5016436;28;20448;-75
2023/05/17 10:31:32;;;;;;;5.97;1.25;;;12.20;99.90;;;;;;5016633;28;20134;-75
2023/05/17 10:34:00;;;;;;;0.90;0.60;;;12.10;99.90;;;;;;5019658;28;20042;-74
2023/05/17 10:36:26;;;;;;;1.98;0.45;;;12.10;99.90;;;;;;5023626;28;20049;-76
2023/05/17 10:38:52;;;;;;;3.45;1.30;;;12.20;99.90;;;;;;5004293;28;20056;-74
2023/05/17 10:41:23;;;;;;;15.77;1.02;;;12.20;99.90;;;;;;5019438;28;20037;-74
2023/05/17 10:43:49;;;;;;;3.08;0.90;;;12.20;99.90;;;;;;5024509;28;20046;-75
2023/05/17 10:46:16;;;;;;;3.22;0.82;;;12.10;99.90;;;;;;5025413;28;20041;-74
2023/05/17 10:48:43;;;;;;;1.85;0.85;;;12.20;99.90;;;;;;5025312;28;20054;-73
2023/05/17 10:51:10;;;;;;;5.70;0.80;;;12.20;99.90;;;;;;5025123;28;20041;-76
2023/05/17 10:54:06;;;;;;;1.70;1.15;;;12.20;99.90;;;;;;5025438;28;20057;-75
2023/05/17 10:56:33;;;;;;;4.03;0.80;;;12.20;99.90;;;;;;5011714;28;20507;-75
2023/05/17 10:59:20;;;;;;;4.82;0.80;;;12.20;99.90;;;;;;5024269;28;20581;-75
2023/05/17 11:02:03;;;;;;;4.22;1.02;;;12.20;99.90;;;;;;5023755;28;20061;-74
2023/05/17 11:04:40;;;;;;;1.98;0.98;;;12.20;99.90;;;;;;5016209;28;20045;-74
2023/05/17 11:07:20;;;;;;;2.83;0.88;;;12.20;99.90;;;;;;5022442;28;20049;-74
2023/05/17 11:10:16;;;;;;;5.97;1.00;;;12.30;99.90;;;;;;5022592;28;20053;-74
2023/05/17 11:12:54;;;;;;;3.20;0.55;;;12.30;99.90;;;;;;5010377;28;20069;-74
2023/05/17 11:15:23;;;;;;;3.50;0.50;;;12.40;99.90;;;;;;5022411;28;20705;-74
2023/05/17 11:17:52;;;;;;;1.45;0.55;;;12.50;99.90;;;;;;5024332;28;20080;-72
2023/05/17 11:20:24;;;;;;;8.00;1.25;;;12.50;99.90;;;;;;5022985;28;20045;-74
2023/05/17 11:22:57;;;;;;;4.57;1.98;;;12.50;99.90;;;;;;5024477;28;20041;-74
2023/05/17 11:25:26;;;;;;;5.13;0.90;;;12.50;99.90;;;;;;5024315;28;20415;-73
2023/05/17 11:27:52;;;;;;;2.70;0.75;;;12.50;99.90;;;;;;5020429;28;20107;-73
2023/05/17 11:30:42;;;;;;;7.05;1.92;;;12.50;99.90;;;;;;5023378;28;20042;-74
2023/05/17 11:33:07;;;;;;;6.55;0.70;;;12.60;99.90;;;;;;5002720;28;20038;-73
2023/05/17 11:35:35;;;;;;;2.85;1.17;;;12.50;99.90;;;;;;5020055;28;20061;-74
2023/05/17 11:38:22;;;;;;;1.40;0.70;;;12.50;99.90;;;;;;5005101;28;20038;-74
2023/05/17 11:40:54;;;;;;;3.75;0.80;;;12.50;99.90;;;;;;5017302;28;20054;-74
2023/05/17 11:43:22;;;;;;;3.72;0.75;;;12.50;99.90;;;;;;5021981;28;20037;-74
2023/05/17 11:46:02;;;;;;;4.28;0.85;;;12.50;99.90;;;;;;5022679;28;20120;-74
2023/05/17 11:48:30;;;;;;;4.18;1.20;;;12.50;99.90;;;;;;5021838;28;20041;-75
2023/05/17 11:50:56;;;;;;;2.53;0.80;;;12.60;99.90;;;;;;5022149;28;20488;-76
2023/05/17 11:53:23;;;;;;;3.38;0.68;;;12.60;99.90;;;;;;5009479;28;20048;-74
2023/05/17 11:55:50;;;;;;;4.50;1.20;;;12.60;99.90;;;;;;5024522;28;20532;-74
2023/05/17 11:58:25;;;;;;;1.55;0.65;;;12.60;99.90;;;;;;5022676;28;20057;-74
2023/05/17 12:00:57;;;;;;;3.45;0.88;;;12.50;99.90;;;;;;5024111;28;20044;-73
2023/05/17 12:03:24;;;;;;;2.45;1.00;;;12.50;99.90;;;;;;5023435;28;20479;-74
2023/05/17 12:06:01;;;;;;;4.57;1.00;;;12.40;99.90;;;;;;5022318;28;20399;-73
2023/05/17 12:08:26;;;;;;;7.40;1.08;;;12.40;99.90;;;;;;5022413;28;20115;-75
2023/05/17 12:10:52;;;;;;;1.13;0.88;;;12.40;99.90;;;;;;5017888;28;20484;-75
2023/05/17 12:13:19;;;;;;;2.63;0.90;;;12.30;99.90;;;;;;5023368;28;20096;-72
2023/05/17 12:15:53;;;;;;;1.95;0.50;;;12.30;99.90;;;;;;5007450;28;20416;-74
2023/05/17 12:18:19;;;;;;;3.45;1.67;;;12.30;99.90;;;;;;5002848;28;20069;-74
2023/05/17 12:20:59;;;;;;;1.58;0.95;;;12.30;99.90;;;;;;5006727;28;20077;-73
2023/05/17 12:23:45;;;;;;;2.42;1.05;;;12.40;99.90;;;;;;5004552;28;20119;-74
2023/05/17 12:26:21;;;;;;;4.47;0.90;;;12.50;99.90;;;;;;5003442;28;20369;-77
2023/05/17 12:28:56;;;;;;;0.75;0.70;;;12.50;99.90;;;;;;5018276;28;20042;-76
2023/05/17 12:31:33;;;;;;;2.50;0.73;;;12.40;99.90;;;;;;4999851;28;20343;-76
2023/05/17 12:34:00;;;;;;;2.45;0.80;;;12.50;99.90;;;;;;5022902;28;20273;-76
2023/05/17 12:36:28;;;;;;;5.07;1.00;;;12.50;99.90;;;;;;5010407;28;20061;-77
2023/05/17 12:38:55;;;;;;;0.57;0.57;;;12.60;99.90;;;;;;5016185;28;20647;-76
2023/05/17 12:41:22;;;;;;;2.70;0.65;;;12.60;99.90;;;;;;5009107;28;20042;-76
2023/05/17 12:43:49;;;;;;;1.92;0.80;;;12.60;99.90;;;;;;5020074;28;20053;-76
2023/05/17 12:46:21;;;;;;;0.82;0.75;;;12.60;99.90;;;;;;5009416;28;20049;-76
2023/05/17 12:48:48;;;;;;;1.60;0.43;;;12.60;99.90;;;;;;5012262;28;20116;-76
2023/05/17 12:51:16;;;;;;;3.05;0.88;;;12.60;99.90;;;;;;5018394;28;20340;-76
2023/05/17 12:53:50;;;;;;;2.63;1.02;;;12.70;99.90;;;;;;5017255;28;20104;-76